createdAt,value
2019-05-11T00:00:23.462Z,0.97
2019-05-11T00:02:54.547Z,1.00
2019-05-11T00:05:25.640Z,0.90
2019-05-11T00:07:56.689Z,0.70
2019-05-11T00:10:27.761Z,0.70
2019-05-11T00:12:59.327Z,0.90
2019-05-11T00:15:30.409Z,0.70
2019-05-11T00:18:01.480Z,1.03
2019-05-11T00:20:32.553Z,1.00
2019-05-11T00:23:03.686Z,0.80
2019-05-11T00:25:34.772Z,0.60
2019-05-11T00:28:06.020Z,0.70
2019-05-11T00:30:37.080Z,0.77
2019-05-11T00:33:08.155Z,0.78
2019-05-11T00:35:39.227Z,0.73
2019-05-11T00:38:10.404Z,0.80
2019-05-11T00:40:41.476Z,0.73
2019-05-11T00:43:12.613Z,0.80
2019-05-11T00:45:43.813Z,1.10
2019-05-11T00:48:14.886Z,0.70
2019-05-11T00:50:46.026Z,0.93
2019-05-11T00:53:17.179Z,0.77
2019-05-11T00:55:48.343Z,0.88
2019-05-11T00:58:19.459Z,0.87
2019-05-11T01:00:50.661Z,0.80
2019-05-11T01:03:21.746Z,0.90
2019-05-11T01:05:53.025Z,0.87
2019-05-11T01:08:24.139Z,1.20
2019-05-11T01:10:55.230Z,0.80
2019-05-11T01:13:26.611Z,0.70
2019-05-11T01:15:59.448Z,0.72
2019-05-11T01:18:30.538Z,0.70
2019-05-11T01:21:01.697Z,0.80
2019-05-11T01:23:32.838Z,0.90
2019-05-11T01:26:04.995Z,1.17
2019-05-11T01:28:36.144Z,1.10
2019-05-11T01:31:07.605Z,0.72
2019-05-11T01:33:38.796Z,0.70
2019-05-11T01:36:09.862Z,0.70
2019-05-11T01:38:40.936Z,0.90
2019-05-11T01:41:11.985Z,0.95
2019-05-11T01:43:43.043Z,0.97
2019-05-11T01:46:15.298Z,1.17
2019-05-11T01:48:46.451Z,0.70
2019-05-11T01:51:17.521Z,0.90
2019-05-11T01:53:48.652Z,1.37
2019-05-11T01:56:19.890Z,1.10
2019-05-11T01:58:50.943Z,1.00
2019-05-11T02:01:21.975Z,1.10
2019-05-11T02:03:53.010Z,0.80
2019-05-11T02:06:24.168Z,1.00
2019-05-11T02:08:55.176Z,1.00
2019-05-11T02:11:26.183Z,0.73
2019-05-11T02:13:57.353Z,0.90
2019-05-11T02:16:29.825Z,0.70
2019-05-11T02:19:00.863Z,1.10
2019-05-11T02:21:31.955Z,0.63
2019-05-11T02:24:02.987Z,1.03
2019-05-11T02:26:33.993Z,0.80
2019-05-11T02:29:05.304Z,0.70
2019-05-11T02:31:36.750Z,1.10
2019-05-11T02:34:07.765Z,0.87
2019-05-11T02:36:38.805Z,0.90
2019-05-11T02:39:10.020Z,0.90
2019-05-11T02:41:41.039Z,0.75
2019-05-11T02:44:12.152Z,0.67
2019-05-11T02:46:43.244Z,0.77
2019-05-11T02:49:14.349Z,0.93
2019-05-11T02:51:45.828Z,0.70
2019-05-11T02:54:17.328Z,0.70
2019-05-11T02:56:48.367Z,1.23
2019-05-11T02:59:19.470Z,0.67
2019-05-11T03:01:50.499Z,1.20
2019-05-11T03:04:21.583Z,0.85
2019-05-11T03:06:52.618Z,1.02
2019-05-11T03:09:23.646Z,0.80
2019-05-11T03:11:56.332Z,0.70
2019-05-11T03:14:27.745Z,0.97
2019-05-11T03:17:12.411Z,0.90
2019-05-11T03:19:43.496Z,1.00
2019-05-11T03:22:15.566Z,0.85
2019-05-11T03:24:46.604Z,0.93
2019-05-11T03:27:18.775Z,0.73
2019-05-11T03:29:49.797Z,0.90
2019-05-11T03:32:20.820Z,0.70
2019-05-11T03:34:51.858Z,0.90
2019-05-11T03:37:22.884Z,0.90
2019-05-11T03:39:53.932Z,0.80
2019-05-11T03:42:25.068Z,1.20
2019-05-11T03:44:56.193Z,1.00
2019-05-11T03:47:27.206Z,0.60
2019-05-11T03:49:59.490Z,0.80
2019-05-11T03:52:30.785Z,0.90
2019-05-11T03:55:01.816Z,0.93
2019-05-11T03:57:32.879Z,1.00
2019-05-11T04:00:04.498Z,0.82
2019-05-11T04:02:37.050Z,0.90
2019-05-11T04:05:09.511Z,0.80
2019-05-11T04:07:41.499Z,1.07
2019-05-11T04:10:13.449Z,1.07
2019-05-11T04:12:44.544Z,0.90
2019-05-11T04:15:16.098Z,0.60
2019-05-11T04:17:47.135Z,0.80
2019-05-11T04:20:18.449Z,0.73
2019-05-11T04:22:49.513Z,0.60
2019-05-11T04:25:20.601Z,1.17
2019-05-11T04:27:51.609Z,0.63
2019-05-11T04:30:22.788Z,0.57
2019-05-11T04:32:53.814Z,0.90
2019-05-11T04:35:24.858Z,0.63
2019-05-11T04:37:56.240Z,1.10
2019-05-11T04:40:27.430Z,0.77
2019-05-11T04:42:59.768Z,0.57
2019-05-11T04:45:30.880Z,0.87
2019-05-11T04:48:02.954Z,0.63
2019-05-11T04:50:34.049Z,0.70
2019-05-11T04:53:05.154Z,0.60
2019-05-11T04:55:36.191Z,0.97
2019-05-11T04:58:07.491Z,0.37
2019-05-11T05:00:39.603Z,0.60
2019-05-11T05:03:10.674Z,0.90
2019-05-11T05:05:41.772Z,0.60
2019-05-11T05:08:12.882Z,0.70
2019-05-11T05:10:43.901Z,0.60
2019-05-11T05:13:14.977Z,0.75
2019-05-11T05:15:46.022Z,0.60
2019-05-11T05:18:17.148Z,0.70
2019-05-11T05:20:49.247Z,0.73
2019-05-11T05:23:20.331Z,0.43
2019-05-11T05:25:51.415Z,0.37
2019-05-11T05:28:22.498Z,0.57
2019-05-11T05:30:53.702Z,1.03
2019-05-11T05:33:24.831Z,0.67
2019-05-11T05:35:55.901Z,0.60
2019-05-11T05:38:26.927Z,0.65
2019-05-11T05:40:57.960Z,0.90
2019-05-11T05:43:29.937Z,0.50
2019-05-11T05:46:00.977Z,0.60
2019-05-11T05:48:32.003Z,0.67
2019-05-11T05:51:03.150Z,0.50
2019-05-11T05:53:34.538Z,0.55
2019-05-11T05:56:06.155Z,0.80
2019-05-11T05:58:37.221Z,0.53
2019-05-11T06:01:10.183Z,0.73
2019-05-11T06:03:41.208Z,0.87
2019-05-11T06:06:13.901Z,0.57
2019-05-11T06:08:45.058Z,0.70
2019-05-11T06:11:16.158Z,0.70
2019-05-11T06:13:47.177Z,0.53
2019-05-11T06:16:18.361Z,0.80
2019-05-11T06:18:49.757Z,0.80
2019-05-11T06:21:20.871Z,0.60
2019-05-11T06:23:51.914Z,0.60
2019-05-11T06:26:23.073Z,0.63
2019-05-11T06:28:54.197Z,0.60
2019-05-11T06:31:25.589Z,0.90
2019-05-11T06:33:56.656Z,0.40
2019-05-11T06:36:27.769Z,0.90
2019-05-11T06:38:58.773Z,0.77
2019-05-11T06:41:30.709Z,0.80
2019-05-11T06:44:02.451Z,0.87
2019-05-11T06:46:35.157Z,0.77
2019-05-11T06:49:06.357Z,0.87
2019-05-11T06:51:40.359Z,1.10
2019-05-11T06:54:11.328Z,0.70
2019-05-11T06:56:42.351Z,0.60
2019-05-11T06:59:13.374Z,1.00
2019-05-11T07:01:44.662Z,0.60
2019-05-11T07:04:15.701Z,0.80
2019-05-11T07:06:46.717Z,0.60
2019-05-11T07:09:17.845Z,1.10
2019-05-11T07:11:49.132Z,0.70
2019-05-11T07:14:21.449Z,0.90
2019-05-11T07:16:52.675Z,0.93
2019-05-11T07:19:23.793Z,1.27
2019-05-11T07:21:54.805Z,1.00
2019-05-11T07:24:26.177Z,0.73
2019-05-11T07:26:57.213Z,0.73
2019-05-11T07:29:28.242Z,0.80
2019-05-11T07:32:06.218Z,0.60
2019-05-11T07:34:33.352Z,0.60
2019-05-11T07:37:04.546Z,0.67
2019-05-11T07:39:35.562Z,0.88
2019-05-11T07:42:07.774Z,0.63
2019-05-11T07:44:41.735Z,0.90
2019-05-11T07:47:11.696Z,0.50
2019-05-11T07:49:42.722Z,0.75
2019-05-11T07:52:13.809Z,0.87
2019-05-11T07:54:44.905Z,0.83
2019-05-11T07:57:15.960Z,0.73
2019-05-11T07:59:48.680Z,0.63
2019-05-11T08:02:19.899Z,0.40
2019-05-11T08:04:50.922Z,0.60
2019-05-11T08:07:21.988Z,0.70
2019-05-11T08:09:52.989Z,0.70
2019-05-11T08:12:24.154Z,0.50
2019-05-11T08:15:01.031Z,0.40
2019-05-11T08:17:28.631Z,0.50
2019-05-11T08:20:00.821Z,0.60
2019-05-11T08:22:31.834Z,0.65
2019-05-11T08:25:02.925Z,1.07
2019-05-11T08:27:34.089Z,0.70
2019-05-11T08:30:08.362Z,0.82
2019-05-11T08:32:39.747Z,1.20
2019-05-11T08:35:11.709Z,0.95
2019-05-11T08:37:42.824Z,0.90
2019-05-11T08:40:18.118Z,1.05
2019-05-11T08:42:49.684Z,0.93
2019-05-11T08:45:24.443Z,1.30
2019-05-11T08:47:54.588Z,0.60
2019-05-11T08:50:27.703Z,0.90
2019-05-11T08:52:58.545Z,0.60
2019-05-11T08:55:30.907Z,0.60
2019-05-11T08:58:01.947Z,0.50
2019-05-11T09:00:33.139Z,0.55
2019-05-11T09:03:04.259Z,1.17
2019-05-11T09:05:35.360Z,0.40
2019-05-11T09:08:08.202Z,0.27
2019-05-11T09:10:39.879Z,0.50
2019-05-11T09:13:11.226Z,0.40
2019-05-11T09:15:42.332Z,0.60
2019-05-11T09:18:13.463Z,0.40
2019-05-11T09:20:44.585Z,0.40
2019-05-11T09:23:32.515Z,0.30
2019-05-11T09:25:48.535Z,0.50
2019-05-11T09:28:19.652Z,0.20
2019-05-11T09:30:50.706Z,0.40
2019-05-11T09:33:21.788Z,0.30
2019-05-11T09:35:53.633Z,0.50
2019-05-11T09:38:24.717Z,0.37
2019-05-11T09:40:55.836Z,0.30
2019-05-11T09:43:28.395Z,0.40
2019-05-11T09:45:59.585Z,0.40
2019-05-11T09:48:30.662Z,0.23
2019-05-11T09:51:02.617Z,0.30
2019-05-11T09:53:33.728Z,0.63
2019-05-11T09:56:04.866Z,0.33
2019-05-11T09:58:38.658Z,0.33
2019-05-11T10:01:09.655Z,0.33
2019-05-11T10:03:40.778Z,0.23
2019-05-11T10:06:11.793Z,0.27
2019-05-11T10:08:42.895Z,0.40
2019-05-11T10:11:13.910Z,0.30
2019-05-11T10:13:45.027Z,0.33
2019-05-11T10:16:17.891Z,0.30
2019-05-11T10:18:49.473Z,0.20
2019-05-11T10:21:21.319Z,0.30
2019-05-11T10:23:52.439Z,0.30
2019-05-11T10:26:23.503Z,0.30
2019-05-11T10:28:54.649Z,0.37
2019-05-11T10:31:25.768Z,0.30
2019-05-11T10:33:58.009Z,0.30
2019-05-11T10:36:29.245Z,0.20
2019-05-11T10:39:00.442Z,0.30
2019-05-11T10:41:32.857Z,0.33
2019-05-11T10:44:04.405Z,0.50
2019-05-11T10:46:37.890Z,0.40
2019-05-11T10:49:08.345Z,0.30
2019-05-11T10:51:39.375Z,0.37
2019-05-11T10:54:10.436Z,0.50
2019-05-11T10:56:41.442Z,0.35
2019-05-11T10:59:15.495Z,0.30
2019-05-11T11:01:45.237Z,0.20
2019-05-11T11:04:18.378Z,0.30
2019-05-11T11:06:49.052Z,0.20
2019-05-11T11:09:20.215Z,0.40
2019-05-11T11:11:52.384Z,0.20
2019-05-11T11:14:23.423Z,0.20
2019-05-11T11:16:54.507Z,0.27
2019-05-11T11:19:25.890Z,0.30
2019-05-11T11:22:02.144Z,0.20
2019-05-11T11:24:29.684Z,0.40
2019-05-11T11:27:00.757Z,0.30
2019-05-11T11:29:33.024Z,0.30
2019-05-11T11:32:04.120Z,0.30
2019-05-11T11:34:35.428Z,0.30
2019-05-11T11:37:08.358Z,0.30
2019-05-11T11:39:40.500Z,0.33
2019-05-11T11:42:11.513Z,0.20
2019-05-11T11:44:42.618Z,0.20
2019-05-11T11:47:13.797Z,0.30
2019-05-11T11:49:44.832Z,0.30
2019-05-11T11:52:15.942Z,0.20
2019-05-11T11:54:47.895Z,0.30
2019-05-11T11:57:19.176Z,0.80
2019-05-11T11:59:50.218Z,0.20
2019-05-11T12:02:21.638Z,0.40
2019-05-11T12:04:52.737Z,0.37
2019-05-11T12:07:23.820Z,0.50
2019-05-11T12:09:54.863Z,0.40
2019-05-11T12:12:27.959Z,0.33
2019-05-11T12:14:58.926Z,0.20
2019-05-11T12:17:30.037Z,0.20
2019-05-11T12:20:01.145Z,0.23
2019-05-11T12:22:33.183Z,0.40
2019-05-11T12:25:07.777Z,0.30
2019-05-11T12:27:38.654Z,0.40
2019-05-11T12:30:11.430Z,0.30
2019-05-11T12:32:48.503Z,0.20
2019-05-11T12:35:19.234Z,0.30
2019-05-11T12:37:50.286Z,0.20
2019-05-11T12:40:21.582Z,0.20
2019-05-11T12:42:52.633Z,0.20
2019-05-11T12:45:23.954Z,0.40
2019-05-11T12:47:55.105Z,0.33
2019-05-11T12:50:28.597Z,0.28
2019-05-11T12:52:59.381Z,0.30
2019-05-11T12:55:30.434Z,0.30
2019-05-11T12:58:01.508Z,0.30
2019-05-11T13:00:33.428Z,0.20
2019-05-11T13:03:08.064Z,0.30
2019-05-11T13:05:39.164Z,0.30
2019-05-11T13:08:10.256Z,0.20
2019-05-11T13:10:41.930Z,0.35
2019-05-11T13:13:12.952Z,0.10
2019-05-11T13:15:43.969Z,0.30
2019-05-11T13:18:15.496Z,0.30
2019-05-11T13:20:48.226Z,0.27
2019-05-11T13:23:19.620Z,0.20
2019-05-11T13:25:50.706Z,0.20
2019-05-11T13:28:21.733Z,0.30
2019-05-11T13:30:52.755Z,0.30
2019-05-11T13:33:23.867Z,0.53
2019-05-11T13:35:55.072Z,0.27
2019-05-11T13:38:28.095Z,0.30
2019-05-11T13:40:59.182Z,0.53
2019-05-11T13:43:30.294Z,0.23
2019-05-11T13:46:01.395Z,0.20
2019-05-11T13:48:33.369Z,0.30
2019-05-11T13:51:04.411Z,0.40
2019-05-11T13:53:37.511Z,0.20
2019-05-11T13:56:08.325Z,0.30
2019-05-11T13:58:39.434Z,0.20
2019-05-11T14:01:10.473Z,0.50
2019-05-11T14:03:43.186Z,0.20
2019-05-11T14:06:14.219Z,0.40
2019-05-11T14:08:45.335Z,0.30
2019-05-11T14:11:18.280Z,0.20
2019-05-11T14:13:49.111Z,0.27
2019-05-11T14:16:20.158Z,0.30
2019-05-11T14:18:51.254Z,0.33
2019-05-11T14:21:22.402Z,0.30
2019-05-11T14:23:53.435Z,0.50
2019-05-11T14:26:25.050Z,0.35
2019-05-11T14:28:57.837Z,0.23
2019-05-11T14:31:28.969Z,0.40
2019-05-11T14:34:00.006Z,0.30
2019-05-11T14:36:31.092Z,0.37
2019-05-11T14:39:08.121Z,0.40
2019-05-11T14:41:39.294Z,0.40
2019-05-11T14:44:10.336Z,0.40
2019-05-11T14:46:41.376Z,0.40
2019-05-11T14:49:12.465Z,0.40
2019-05-11T14:51:43.967Z,0.30
2019-05-11T14:54:15.031Z,0.50
2019-05-11T14:56:48.129Z,0.40
2019-05-11T14:59:19.452Z,0.40
2019-05-11T15:01:50.591Z,0.37
2019-05-11T15:04:21.730Z,0.30
2019-05-11T15:06:52.846Z,0.30
2019-05-11T15:09:23.934Z,0.30
2019-05-11T15:11:55.267Z,0.30
2019-05-11T15:14:28.671Z,0.40
2019-05-11T15:16:59.326Z,0.80
2019-05-11T15:19:30.365Z,0.40
2019-05-11T15:22:01.462Z,0.30
2019-05-11T15:24:33.804Z,0.30
2019-05-11T15:27:04.906Z,0.30
2019-05-11T15:29:37.785Z,0.30
2019-05-11T15:32:09.063Z,0.40
2019-05-11T15:34:40.103Z,0.30
2019-05-11T15:37:11.120Z,0.40
2019-05-11T15:39:42.227Z,0.47
2019-05-11T15:42:16.836Z,0.30
2019-05-11T15:44:48.298Z,0.40
2019-05-11T15:47:19.812Z,0.60
2019-05-11T15:49:51.942Z,0.40
2019-05-11T15:52:23.025Z,0.60
2019-05-11T15:54:54.138Z,0.43
2019-05-11T15:57:25.195Z,0.30
2019-05-11T15:59:58.379Z,0.40
2019-05-11T16:02:29.082Z,0.87
2019-05-11T16:05:00.114Z,0.70
2019-05-11T16:07:31.144Z,0.30
2019-05-11T16:10:02.261Z,0.53
2019-05-11T16:12:33.968Z,0.53
2019-05-11T16:15:08.571Z,0.83
2019-05-11T16:17:40.354Z,0.52
2019-05-11T16:20:12.239Z,0.90
2019-05-11T16:22:43.382Z,0.67
2019-05-11T16:25:15.123Z,0.90
2019-05-11T16:27:46.190Z,0.83
2019-05-11T16:30:21.092Z,0.83
2019-05-11T16:32:50.729Z,0.80
2019-05-11T16:35:22.136Z,0.70
2019-05-11T16:37:53.183Z,1.07
2019-05-11T16:40:24.436Z,0.80
2019-05-11T16:42:58.232Z,1.10
2019-05-11T16:45:28.382Z,0.90
2019-05-11T16:47:59.535Z,1.10
2019-05-11T16:50:30.691Z,1.10
2019-05-11T16:53:01.752Z,1.30
2019-05-11T16:55:33.977Z,1.40
2019-05-11T16:58:08.006Z,1.40
2019-05-11T17:00:42.235Z,1.20
2019-05-11T17:03:11.993Z,1.25
2019-05-11T17:05:43.176Z,1.37
2019-05-11T17:08:14.311Z,1.20
2019-05-11T17:10:54.531Z,1.30
2019-05-11T17:13:25.948Z,1.30
2019-05-11T17:15:58.286Z,1.70
2019-05-11T17:18:29.633Z,1.40
2019-05-11T17:21:00.742Z,1.07
2019-05-11T17:23:31.773Z,1.50
2019-05-11T17:26:04.218Z,1.40
2019-05-11T17:28:35.232Z,1.10
2019-05-11T17:31:08.048Z,1.20
2019-05-11T17:33:39.374Z,1.70
2019-05-11T17:36:10.516Z,1.12
2019-05-11T17:38:41.553Z,1.10
2019-05-11T17:41:12.587Z,1.07
2019-05-11T17:43:43.614Z,1.27
2019-05-11T17:46:14.649Z,1.37
2019-05-11T17:48:45.696Z,1.20
2019-05-11T17:51:21.828Z,1.03
2019-05-11T17:53:49.827Z,1.40
2019-05-11T17:56:21.019Z,1.40
2019-05-11T17:58:52.133Z,0.93
2019-05-11T18:01:23.173Z,1.50
2019-05-11T18:03:54.228Z,1.43
2019-05-11T18:06:25.251Z,0.97
2019-05-11T18:08:58.398Z,1.20
2019-05-11T18:11:29.957Z,1.43
2019-05-11T18:14:01.090Z,1.30
2019-05-11T18:16:32.122Z,1.00
2019-05-11T18:19:04.216Z,0.80
2019-05-11T18:21:35.306Z,1.53
2019-05-11T18:24:08.869Z,1.00
2019-05-11T18:26:39.148Z,1.12
2019-05-11T18:29:10.254Z,0.70
2019-05-11T18:31:41.301Z,1.03
2019-05-11T18:34:12.621Z,1.13
2019-05-11T18:36:43.656Z,1.43
2019-05-11T18:39:15.730Z,1.00
2019-05-11T18:41:48.389Z,1.03
2019-05-11T18:44:19.538Z,0.93
2019-05-11T18:46:50.584Z,1.60
2019-05-11T18:49:21.985Z,1.20
2019-05-11T18:51:53.100Z,1.07
2019-05-11T18:54:24.321Z,0.80
2019-05-11T18:56:55.381Z,1.10
2019-05-11T18:59:28.316Z,1.50
2019-05-11T19:02:00.546Z,1.47
2019-05-11T19:04:31.581Z,1.10
2019-05-11T19:07:14.249Z,1.37
2019-05-11T19:09:37.977Z,1.50
2019-05-11T19:12:09.646Z,1.27
2019-05-11T19:14:40.698Z,1.60
2019-05-11T19:17:11.716Z,1.63
2019-05-11T19:19:42.770Z,1.63
2019-05-11T19:22:13.771Z,1.57
2019-05-11T19:24:44.925Z,1.73
2019-05-11T19:27:18.414Z,1.25
2019-05-11T19:29:48.652Z,1.63
2019-05-11T19:32:19.653Z,1.70
2019-05-11T19:34:50.675Z,1.47
2019-05-11T19:37:21.710Z,1.62
2019-05-11T19:39:53.162Z,1.50
2019-05-11T19:42:24.178Z,1.77
2019-05-11T19:44:55.352Z,1.33
2019-05-11T19:47:28.211Z,1.57
2019-05-11T19:49:59.364Z,1.50
2019-05-11T19:52:30.424Z,0.98
2019-05-11T19:55:01.506Z,1.83
2019-05-11T19:57:32.565Z,1.63
2019-05-11T20:00:07.782Z,1.30
2019-05-11T20:02:39.057Z,1.30
2019-05-11T20:05:11.827Z,1.50
2019-05-11T20:07:43.120Z,1.00
2019-05-11T20:10:14.583Z,1.43
2019-05-11T20:12:48.063Z,1.30
2019-05-11T20:15:19.196Z,1.60
2019-05-11T20:17:50.422Z,1.40
2019-05-11T20:20:21.880Z,1.45
2019-05-11T20:22:52.911Z,1.43
2019-05-11T20:25:24.036Z,1.40
2019-05-11T20:27:55.038Z,1.57
2019-05-11T20:30:26.097Z,1.60
2019-05-11T20:32:57.117Z,1.77
2019-05-11T20:35:28.169Z,1.77
2019-05-11T20:37:59.553Z,1.62
2019-05-11T20:40:32.486Z,1.30
2019-05-11T20:43:04.655Z,1.48
2019-05-11T20:45:37.782Z,1.60
2019-05-11T20:48:08.793Z,1.85
2019-05-11T20:50:40.796Z,1.67
2019-05-11T20:53:11.920Z,1.23
2019-05-11T20:55:42.976Z,1.67
2019-05-11T20:58:14.227Z,1.23
2019-05-11T21:00:45.261Z,1.83
2019-05-11T21:03:16.387Z,1.50
2019-05-11T21:05:48.275Z,1.60
2019-05-11T21:08:19.368Z,1.30
2019-05-11T21:10:50.391Z,1.30
2019-05-11T21:13:21.434Z,1.13
2019-05-11T21:15:52.505Z,1.30
2019-05-11T21:18:23.572Z,1.10
2019-05-11T21:20:54.589Z,1.45
2019-05-11T21:23:25.645Z,1.25
2019-05-11T21:25:56.651Z,1.43
2019-05-11T21:28:30.369Z,1.00
2019-05-11T21:31:00.459Z,1.40
2019-05-11T21:33:31.490Z,1.40
2019-05-11T21:36:02.500Z,1.47
2019-05-11T21:38:34.884Z,1.33
2019-05-11T21:41:08.618Z,1.77
2019-05-11T21:43:38.763Z,1.98
2019-05-11T21:46:09.949Z,1.13
2019-05-11T21:48:41.001Z,1.07
2019-05-11T21:51:12.116Z,1.40
2019-05-11T21:53:43.179Z,1.40
2019-05-11T21:56:14.214Z,1.80
2019-05-11T21:58:45.406Z,1.82
2019-05-11T22:01:20.100Z,1.97
2019-05-11T22:03:49.564Z,1.60
2019-05-11T22:06:20.733Z,1.40
2019-05-11T22:08:51.800Z,1.92
2019-05-11T22:11:22.972Z,1.50
2019-05-11T22:13:54.017Z,1.60
2019-05-11T22:16:25.026Z,1.43
2019-05-11T22:18:57.985Z,1.80
2019-05-11T22:21:28.785Z,1.80
2019-05-11T22:23:59.800Z,1.47
2019-05-11T22:26:31.249Z,1.73
2019-05-11T22:29:03.329Z,1.37
2019-05-11T22:31:35.308Z,1.67
2019-05-11T22:34:08.768Z,1.20
2019-05-11T22:36:39.119Z,1.60
2019-05-11T22:39:10.344Z,1.50
2019-05-11T22:41:41.345Z,1.67
2019-05-11T22:44:12.365Z,1.63
2019-05-11T22:46:43.371Z,1.40
2019-05-11T22:49:14.472Z,1.00
2019-05-11T22:51:45.484Z,1.67
2019-05-11T22:54:18.545Z,1.17
2019-05-11T22:56:49.306Z,1.47
2019-05-11T22:59:20.640Z,1.40
2019-05-11T23:01:51.673Z,1.87
2019-05-11T23:04:22.692Z,1.97
2019-05-11T23:06:53.696Z,1.70
2019-05-11T23:09:24.728Z,1.70
2019-05-11T23:12:00.804Z,1.37
2019-05-11T23:14:28.487Z,1.40
2019-05-11T23:16:59.572Z,1.40
2019-05-11T23:19:30.589Z,1.30
2019-05-11T23:22:01.671Z,1.60
2019-05-11T23:24:32.723Z,1.40
2019-05-11T23:27:05.053Z,1.30
2019-05-11T23:29:38.228Z,1.70
2019-05-11T23:32:08.868Z,2.07
2019-05-11T23:34:39.954Z,3.08
2019-05-11T23:37:10.951Z,3.93
2019-05-11T23:39:42.268Z,2.85
2019-05-11T23:42:13.360Z,3.27
2019-05-11T23:44:45.846Z,2.57
2019-05-11T23:47:20.095Z,3.22
2019-05-11T23:49:49.883Z,2.50
2019-05-11T23:52:21.054Z,3.63
2019-05-11T23:54:52.065Z,2.30
2019-05-11T23:57:23.073Z,1.73
2019-05-11T23:59:54.177Z,1.83
